Terminal Aerodrome Forecast
Issued by NWS Cleveland, OH

Home | Current Version | Previous Version | Text Only | Print | Product List | Glossary Off
Versions: 1 2 3 4 5 6 7 8 9 10 11 12 13 14 15 16 17 18 19 20 21

853
FTUS41 KCLE 250531
TAFYNG
TAF
KYNG 250531Z 2506/2606 12012KT P6SM -SHRA BKN019 OVC025
     FM251600 17008KT 6SM -SHRA SCT019 OVC020
     FM260000 25004KT 6SM -SHRA OVC007=

USA.gov is the U.S. government's official web portal to all federal, state and local government web resources and services.